Time;durP1;ratioP1;P1;durP2;ratioP2;P2;SDS_P1;SDS_P2;PMS_P1;PMS_P2;Temp;Humidity;BMP_temperature;BMP_pressure;BME280_temperature;BME280_humidity;BME280_pressure;Samples;Min_cycle;Max_cycle;Signal;HPM_P1;HPM_P2
2023/08/23 00:01:33;;;;;;;5.40;2.30;;;18.30;99.90;;;19.17;63.20;100993.31;5014529;28;20100;-83
2023/08/23 00:04:01;;;;;;;5.60;2.47;;;18.30;99.90;;;19.14;63.49;100993.84;4997631;28;20041;-83
2023/08/23 00:06:28;;;;;;;5.90;2.33;;;18.30;99.90;;;19.12;63.35;100995.97;5015428;28;20102;-83
2023/08/23 00:08:55;;;;;;;6.07;2.28;;;18.30;99.90;;;19.09;63.54;101001.91;5013047;28;20173;-83
2023/08/23 00:11:22;;;;;;;6.60;2.20;;;18.20;99.90;;;19.06;63.72;100996.97;5009515;28;20044;-83
2023/08/23 00:13:49;;;;;;;6.82;2.63;;;18.20;99.90;;;19.05;63.83;101001.56;5009419;28;20471;-84
2023/08/23 00:16:18;;;;;;;7.43;2.50;;;18.20;99.90;;;19.04;63.61;100995.34;5011608;28;20053;-82
2023/08/23 00:18:45;;;;;;;6.05;2.42;;;18.20;99.90;;;19.03;63.75;100996.44;5011519;28;20212;-82
2023/08/23 00:21:13;;;;;;;6.70;2.45;;;18.20;99.90;;;19.00;63.94;100986.13;5011450;28;20124;-83
2023/08/23 00:23:40;;;;;;;8.55;2.75;;;18.20;99.90;;;19.00;63.69;100994.22;5010228;28;20046;-83
2023/08/23 00:26:07;;;;;;;6.57;2.20;;;18.20;99.90;;;18.98;64.09;100990.97;5010334;28;20045;-83
2023/08/23 00:28:34;;;;;;;6.90;2.22;;;18.10;99.90;;;18.96;64.06;100985.00;5007782;28;20042;-83
2023/08/23 00:31:02;;;;;;;4.40;2.20;;;18.10;99.90;;;18.96;63.75;100986.88;5009554;28;20092;-83
2023/08/23 00:33:30;;;;;;;8.75;2.45;;;18.10;99.90;;;18.96;63.65;100989.59;5013474;28;20042;-83
2023/08/23 00:35:57;;;;;;;5.75;2.53;;;18.10;99.90;;;18.94;64.01;100989.84;5018633;28;20422;-85
2023/08/23 00:38:25;;;;;;;6.57;2.20;;;18.10;99.90;;;18.93;64.06;100987.38;4987461;28;20111;-82
2023/08/23 00:40:52;;;;;;;5.80;2.40;;;18.10;99.90;;;18.89;63.78;100984.38;5002827;28;20044;-82
2023/08/23 00:43:20;;;;;;;7.57;2.85;;;18.00;99.90;;;18.90;64.19;100982.50;4997962;28;20073;-82
2023/08/23 00:45:48;;;;;;;6.80;2.50;;;18.00;99.90;;;18.90;63.94;100977.91;5010517;28;20534;-83
2023/08/23 00:48:15;;;;;;;4.00;2.40;;;18.00;99.90;;;18.88;63.90;100979.22;4994716;28;20044;-83
2023/08/23 00:50:45;;;;;;;7.40;2.20;;;18.00;99.90;;;18.85;63.98;100980.56;4991774;28;20045;-83
2023/08/23 00:53:15;;;;;;;6.95;2.50;;;18.00;99.90;;;18.83;64.09;100974.56;4991605;28;20066;-83
2023/08/23 00:55:42;;;;;;;4.30;2.22;;;18.00;99.90;;;18.83;64.11;100979.97;5013995;28;20136;-82
2023/08/23 00:58:10;;;;;;;5.47;2.63;;;17.90;99.90;;;18.81;64.41;100981.31;5014312;28;20080;-81
2023/08/23 01:00:37;;;;;;;6.90;2.55;;;18.00;99.90;;;18.80;64.48;100987.78;5011246;28;20073;-83
2023/08/23 01:03:05;;;;;;;6.82;3.08;;;18.00;99.90;;;18.78;64.82;100979.91;5027890;28;20077;-82
2023/08/23 01:05:46;;;;;;;5.82;2.38;;;18.00;99.90;;;18.78;64.66;100988.03;4990203;28;20120;-82
2023/08/23 01:08:28;;;;;;;7.25;2.70;;;18.00;99.90;;;18.75;64.58;100983.97;5011785;28;20088;-84
2023/08/23 01:11:01;;;;;;;8.25;2.10;;;17.90;99.90;;;18.75;64.26;100980.44;5006599;28;20120;-82
2023/08/23 01:13:34;;;;;;;7.15;2.35;;;17.90;99.90;;;18.72;64.53;100980.94;5013495;28;20046;-82
2023/08/23 01:16:02;;;;;;;5.78;2.40;;;17.90;99.90;;;18.72;64.45;100979.03;5026761;28;20125;-82
2023/08/23 01:18:31;;;;;;;6.88;2.50;;;17.90;99.90;;;18.72;64.07;100979.03;4994960;28;20042;-82
2023/08/23 01:20:59;;;;;;;6.57;2.50;;;17.90;99.90;;;18.71;64.24;100965.78;5009890;28;20100;-82
2023/08/23 01:23:30;;;;;;;6.88;2.00;;;17.90;99.90;;;18.70;64.13;100983.91;5012530;28;20124;-82
2023/08/23 01:25:57;;;;;;;4.32;2.30;;;17.80;99.90;;;18.66;64.54;100979.22;5013004;28;20465;-82
2023/08/23 01:28:24;;;;;;;6.57;2.50;;;17.80;99.90;;;18.62;64.56;100978.91;4994516;28;20037;-82
2023/08/23 01:30:52;;;;;;;6.03;2.30;;;17.80;99.90;;;18.62;64.39;100975.38;4995665;28;20046;-82
2023/08/23 01:33:26;;;;;;;5.03;2.10;;;17.80;99.90;;;18.59;64.41;100974.00;4976909;28;20084;-82
2023/08/23 01:36:02;;;;;;;5.45;2.20;;;17.80;99.90;;;18.58;64.79;100975.06;5012356;28;20058;-82
2023/08/23 01:38:31;;;;;;;8.88;2.63;;;17.80;99.90;;;18.58;64.84;100971.53;5008184;28;20073;-82
2023/08/23 01:41:00;;;;;;;7.77;2.37;;;17.70;99.90;;;18.55;64.41;100967.47;5025230;28;20054;-81
2023/08/23 01:43:27;;;;;;;5.72;2.10;;;17.80;99.90;;;18.55;64.46;100969.38;5008411;28;20117;-83
2023/08/23 01:45:55;;;;;;;7.68;2.45;;;17.80;99.90;;;18.53;64.45;100964.19;5025358;28;20100;-82
2023/08/23 01:48:22;;;;;;;5.78;2.17;;;17.80;99.90;;;18.50;64.75;100965.53;5011617;28;20397;-82
2023/08/23 01:50:51;;;;;;;7.18;2.50;;;17.70;99.90;;;18.50;64.73;100973.63;4999531;28;20112;-81
2023/08/23 01:53:18;;;;;;;8.52;2.17;;;17.70;99.90;;;18.48;64.83;100964.94;4994824;28;20044;-82
2023/08/23 01:55:48;;;;;;;5.53;2.20;;;17.70;99.90;;;18.45;64.91;100962.78;5028077;28;20050;-82
2023/08/23 01:58:15;;;;;;;8.48;2.13;;;17.70;99.90;;;18.46;64.90;100964.41;4998070;28;20104;-83
2023/08/23 02:00:47;;;;;;;6.88;2.47;;;17.60;99.90;;;18.45;64.64;100962.78;5019492;28;20045;-83
2023/08/23 02:03:15;;;;;;;7.10;2.17;;;17.70;99.90;;;18.44;64.64;100961.09;5011700;28;20052;-82
2023/08/23 02:05:42;;;;;;;10.05;2.40;;;17.70;99.90;;;18.44;64.60;100961.09;4993904;28;20054;-82
2023/08/23 02:08:09;;;;;;;6.78;2.60;;;17.60;99.90;;;18.41;64.69;100961.63;5010851;28;20572;-82
2023/08/23 02:10:37;;;;;;;6.95;2.40;;;17.60;99.90;;;18.40;64.50;100961.88;5011083;28;20546;-82
2023/08/23 02:13:06;;;;;;;5.60;2.30;;;17.60;99.90;;;18.40;64.53;100970.00;4993609;28;20042;-83
2023/08/23 02:15:33;;;;;;;5.18;2.55;;;17.50;99.90;;;18.36;65.09;100963.47;4993972;28;20218;-83
2023/08/23 02:18:01;;;;;;;5.60;2.45;;;17.50;99.90;;;18.32;64.95;100965.84;4989854;28;20049;-83
2023/08/23 02:20:28;;;;;;;14.80;2.83;;;17.50;99.90;;;18.32;64.93;100970.41;4981882;28;20553;-82
2023/08/23 02:22:55;;;;;;;8.77;2.75;;;17.50;99.90;;;18.30;65.27;100975.25;5004136;28;20038;-83
2023/08/23 02:25:22;;;;;;;11.60;2.50;;;17.50;99.90;;;18.26;65.36;100969.53;5009831;28;20125;-84
2023/08/23 02:27:49;;;;;;;6.57;2.92;;;17.50;99.90;;;18.28;65.17;100967.41;5008945;28;20121;-82
2023/08/23 02:30:18;;;;;;;6.97;2.70;;;17.50;99.90;;;18.26;65.40;100961.44;5018268;28;20042;-83
2023/08/23 02:32:46;;;;;;;7.40;2.80;;;17.50;99.90;;;18.25;65.23;100967.88;5005008;28;20711;-82
2023/08/23 02:35:13;;;;;;;7.72;2.85;;;17.40;99.90;;;18.23;65.55;100970.03;4999871;28;20034;-82
2023/08/23 02:37:40;;;;;;;5.00;2.63;;;17.40;99.90;;;18.22;65.54;100971.09;5012920;28;20128;-83
2023/08/23 02:40:09;;;;;;;6.30;2.83;;;17.40;99.90;;;18.21;65.35;100967.59;4996419;28;20048;-82
2023/08/23 02:42:36;;;;;;;6.30;3.10;;;17.40;99.90;;;18.24;65.29;100966.25;4991037;28;20080;-83
2023/08/23 02:45:05;;;;;;;8.43;3.20;;;17.40;99.90;;;18.22;65.55;100958.41;5011904;28;20038;-82
2023/08/23 02:47:34;;;;;;;6.10;2.92;;;17.40;99.90;;;18.21;65.11;100950.56;5010772;28;20438;-83
2023/08/23 02:50:01;;;;;;;5.72;2.58;;;17.40;99.90;;;18.20;64.93;100954.31;5006880;28;20040;-82
2023/08/23 02:52:28;;;;;;;8.00;3.00;;;17.40;99.90;;;18.19;65.34;100952.69;4985176;28;20042;-82
2023/08/23 02:54:55;;;;;;;8.45;2.50;;;17.40;99.90;;;18.17;65.17;100954.84;5006437;28;20038;-83
2023/08/23 02:57:23;;;;;;;6.55;3.05;;;17.40;99.90;;;18.16;65.20;100954.03;4993036;28;20088;-83
2023/08/23 02:59:50;;;;;;;5.35;2.65;;;17.40;99.90;;;18.17;65.32;100952.13;5011079;28;20054;-83
2023/08/23 03:02:18;;;;;;;7.72;2.50;;;17.30;99.90;;;18.17;64.93;100954.84;4994451;28;20339;-82
2023/08/23 03:04:48;;;;;;;6.05;2.90;;;17.30;99.90;;;18.18;64.87;100949.19;5003897;28;20522;-82
2023/08/23 03:07:15;;;;;;;6.18;2.83;;;17.30;99.90;;;18.15;64.99;100946.16;5009315;28;20102;-82
2023/08/23 03:09:44;;;;;;;4.32;2.50;;;17.30;99.90;;;18.14;64.91;100944.53;4993469;28;20077;-83
2023/08/23 03:12:11;;;;;;;5.03;2.50;;;17.30;99.90;;;18.13;64.96;100940.19;5011650;28;20046;-83
2023/08/23 03:14:39;;;;;;;7.40;2.40;;;17.30;99.90;;;18.10;64.96;100933.41;5003021;28;20510;-83
2023/08/23 03:17:06;;;;;;;6.70;2.45;;;17.30;99.90;;;18.07;65.20;100949.31;5007249;28;20038;-83
2023/08/23 03:19:35;;;;;;;5.88;2.78;;;17.20;99.90;;;18.05;65.25;100943.31;5024060;28;20046;-83
2023/08/23 03:22:05;;;;;;;5.95;2.38;;;17.20;99.90;;;18.05;65.10;100940.63;4986485;28;20062;-83
2023/08/23 03:24:33;;;;;;;5.50;2.13;;;17.20;99.90;;;18.04;65.24;100939.00;5012021;28;20038;-83
2023/08/23 03:27:00;;;;;;;5.15;2.35;;;17.20;99.90;;;17.99;65.21;100934.34;5010635;28;20042;-83
2023/08/23 03:29:28;;;;;;;7.78;2.85;;;17.20;99.90;;;17.97;65.39;100929.19;4987947;28;20121;-83
2023/08/23 03:31:56;;;;;;;5.47;2.40;;;17.20;99.90;;;17.95;65.35;100930.50;5000883;28;20140;-83
2023/08/23 03:34:23;;;;;;;5.05;2.10;;;17.10;99.90;;;17.93;65.35;100922.66;5007639;28;20398;-83
2023/08/23 03:36:50;;;;;;;5.80;2.60;;;17.10;99.90;;;17.93;65.32;100916.44;5012074;28;20042;-82
2023/08/23 03:39:19;;;;;;;7.63;2.53;;;17.10;99.90;;;17.89;65.31;100916.13;5013090;28;20137;-83
2023/08/23 03:41:48;;;;;;;7.57;2.60;;;17.10;99.90;;;17.90;65.31;100925.84;4997248;28;20108;-82
2023/08/23 03:44:15;;;;;;;5.47;2.50;;;17.10;99.90;;;17.88;65.27;100917.19;4999737;28;20038;-82
2023/08/23 03:46:42;;;;;;;4.45;2.60;;;17.10;99.90;;;17.86;65.42;100937.38;5010559;28;20046;-82
2023/08/23 03:49:09;;;;;;;4.78;2.45;;;17.10;99.90;;;17.85;65.26;100931.16;4994199;28;20100;-83
2023/08/23 03:51:37;;;;;;;4.55;2.50;;;17.10;99.90;;;17.84;65.66;100940.34;4994652;28;20066;-83
2023/08/23 03:54:04;;;;;;;5.70;2.30;;;17.10;99.90;;;17.84;65.67;100928.72;5012382;28;20069;-83
2023/08/23 03:56:33;;;;;;;7.68;2.60;;;17.10;99.90;;;17.83;65.41;100924.41;4997443;28;20057;-83
2023/08/23 03:59:00;;;;;;;4.97;2.22;;;17.10;99.90;;;17.83;65.49;100924.41;5018172;28;20564;-83
2023/08/23 04:01:28;;;;;;;8.98;2.45;;;17.10;99.90;;;17.81;65.73;100924.63;5014286;28;20129;-82
2023/08/23 04:03:55;;;;;;;7.75;2.72;;;17.00;99.90;;;17.79;65.58;100928.66;5012716;28;20077;-83
2023/08/23 04:06:23;;;;;;;9.57;3.10;;;17.00;99.90;;;17.80;65.80;100931.09;5013225;28;20057;-82
2023/08/23 04:08:51;;;;;;;7.82;2.95;;;17.00;99.90;;;17.79;66.14;100934.88;5014488;28;21736;-82
2023/08/23 04:11:18;;;;;;;7.50;2.47;;;17.00;99.90;;;17.78;65.98;100927.03;5013871;28;20151;-83
2023/08/23 04:13:46;;;;;;;7.68;2.63;;;17.00;99.90;;;17.78;66.05;100927.84;4999312;28;20052;-82
2023/08/23 04:16:15;;;;;;;7.22;3.08;;;17.00;99.90;;;17.78;65.86;100930.53;5013177;28;20042;-83
2023/08/23 04:18:42;;;;;;;6.43;2.60;;;17.00;99.90;;;17.75;66.14;100923.75;4992981;28;20042;-83
2023/08/23 04:21:09;;;;;;;7.93;2.67;;;17.00;99.90;;;17.73;66.15;100917.78;5014282;28;20410;-83
2023/08/23 04:23:39;;;;;;;7.28;2.75;;;16.90;99.90;;;17.71;66.40;100924.44;4998537;28;20108;-83
2023/08/23 04:26:07;;;;;;;8.75;2.88;;;17.00;99.90;;;17.71;66.58;100921.75;4994980;28;20150;-83
2023/08/23 04:28:37;;;;;;;7.38;2.50;;;17.00;99.90;;;17.71;66.40;100925.28;4995842;28;20474;-83
2023/08/23 04:31:05;;;;;;;6.88;2.80;;;17.00;99.90;;;17.70;66.42;100933.63;5009895;28;20502;-81
2023/08/23 04:33:48;;;;;;;6.95;2.78;;;17.00;99.90;;;17.70;66.25;100939.00;4985926;28;20052;-82
2023/08/23 04:36:16;;;;;;;7.13;2.90;;;17.00;99.90;;;17.67;66.45;100929.53;4998474;28;20154;-82
2023/08/23 04:38:43;;;;;;;5.68;2.90;;;17.00;99.90;;;17.67;66.34;100939.53;4997156;28;20065;-82
2023/08/23 04:41:10;;;;;;;4.80;2.53;;;17.00;99.90;;;17.64;66.18;100940.00;5008362;28;20052;-82
2023/08/23 04:43:38;;;;;;;5.60;2.47;;;16.90;99.90;;;17.63;66.47;100951.88;4997487;28;20054;-82
2023/08/23 04:46:09;;;;;;;8.27;2.83;;;16.90;99.90;;;17.61;66.54;100957.47;4996877;28;20729;-82
2023/08/23 04:48:37;;;;;;;7.50;2.83;;;16.90;99.90;;;17.61;66.56;100960.19;5014295;28;20494;-82
2023/08/23 04:51:08;;;;;;;4.85;2.70;;;16.80;99.90;;;17.64;66.32;100967.78;4996678;28;20037;-82
2023/08/23 04:53:36;;;;;;;7.15;2.42;;;16.90;99.90;;;17.63;66.46;100965.34;5007507;28;20068;-82
2023/08/23 04:56:04;;;;;;;6.43;2.53;;;16.90;99.90;;;17.63;66.59;100962.66;5012255;28;20049;-82
2023/08/23 04:58:31;;;;;;;5.75;2.97;;;16.90;99.90;;;17.61;66.53;100964.75;4997739;28;20046;-83
2023/08/23 05:01:03;;;;;;;6.88;2.60;;;16.90;99.90;;;17.63;66.89;100957.25;4995913;28;20076;-83
2023/08/23 05:03:32;;;;;;;7.40;2.80;;;16.90;99.90;;;17.65;66.57;100953.25;5017741;28;20062;-82
2023/08/23 05:06:00;;;;;;;7.38;2.83;;;17.00;99.90;;;17.66;66.83;100944.06;4989659;28;20038;-82
2023/08/23 05:08:28;;;;;;;6.20;2.50;;;17.00;99.90;;;17.66;66.92;100943.25;4989863;28;20049;-82
2023/08/23 05:10:59;;;;;;;5.72;2.45;;;16.90;99.90;;;17.66;67.05;100948.66;4998965;28;20076;-83
2023/08/23 05:13:26;;;;;;;5.53;2.50;;;17.00;99.90;;;17.64;67.14;100946.22;5005909;28;20050;-83
2023/08/23 05:15:53;;;;;;;6.75;2.28;;;16.90;99.90;;;17.65;67.30;100949.72;5015335;28;20042;-83
2023/08/23 05:18:21;;;;;;;8.35;2.80;;;17.00;99.90;;;17.68;67.44;100949.25;4998881;28;20139;-83
2023/08/23 05:20:55;;;;;;;6.88;2.60;;;17.00;99.90;;;17.71;67.79;100954.13;5018651;28;20089;-82
2023/08/23 05:23:22;;;;;;;6.28;2.90;;;17.00;99.90;;;17.71;67.64;100952.28;5010538;28;20077;-83
2023/08/23 05:25:51;;;;;;;6.03;3.30;;;17.00;99.90;;;17.76;67.85;100951.53;5014774;28;20050;-82
2023/08/23 05:28:19;;;;;;;6.05;2.60;;;17.10;99.90;;;17.83;67.87;100952.19;4987691;28;20057;-85
2023/08/23 05:30:46;;;;;;;6.80;3.15;;;17.20;99.90;;;17.86;68.05;100953.56;5011031;28;20072;-84
2023/08/23 05:33:17;;;;;;;;;;;17.30;99.90;;;17.91;68.25;100949.09;4994700;28;20042;-84
2023/08/23 05:35:45;;;;;;;30.80;4.47;;;17.30;99.90;;;17.99;68.12;100945.94;5024820;28;19922;-84
2023/08/23 05:38:15;;;;;;;9.73;3.40;;;17.40;99.90;;;18.08;67.87;100956.31;4996224;28;20580;-84
2023/08/23 05:40:44;;;;;;;8.02;4.05;;;17.50;99.90;;;18.12;67.96;100954.78;5002228;28;20053;-84
2023/08/23 05:43:12;;;;;;;9.48;3.70;;;17.50;99.90;;;18.15;67.99;100951.56;4995555;28;20042;-84
2023/08/23 05:45:39;;;;;;;9.95;3.47;;;17.60;99.90;;;18.16;68.00;100947.81;4992997;28;20072;-82
2023/08/23 05:48:07;;;;;;;9.93;3.70;;;17.60;99.90;;;18.13;68.09;100949.09;4993615;28;20081;-81
2023/08/23 05:50:34;;;;;;;11.63;3.92;;;17.60;99.90;;;18.13;68.51;100953.69;4993349;28;20096;-81
2023/08/23 05:53:09;;;;;;;12.32;4.10;;;17.60;99.90;;;18.17;68.54;100944.84;5004092;28;20037;-82
2023/08/23 05:55:37;;;;;;;9.77;3.72;;;17.60;99.90;;;18.23;68.69;100948.44;5008369;28;20040;-81
2023/08/23 05:58:05;;;;;;;8.13;3.60;;;17.70;99.90;;;18.31;68.81;100944.50;5009245;28;20057;-82
2023/08/23 06:00:32;;;;;;;13.50;3.83;;;17.80;99.90;;;18.38;68.67;100950.50;5003487;28;20518;-81
2023/08/23 06:02:59;;;;;;;9.68;4.05;;;17.90;99.90;;;18.43;68.33;100956.78;5010603;28;20815;-82
2023/08/23 06:05:27;;;;;;;10.98;3.85;;;18.00;99.90;;;18.45;68.38;100954.66;5010310;28;20670;-81
2023/08/23 06:07:54;;;;;;;11.20;4.10;;;18.00;99.90;;;18.45;68.71;100953.84;5010707;28;20569;-82
2023/08/23 06:10:21;;;;;;;8.27;3.67;;;18.00;99.90;;;18.45;69.05;100956.56;5011702;28;20045;-81
2023/08/23 06:12:50;;;;;;;8.32;2.97;;;18.00;99.90;;;18.44;69.62;100949.50;4993357;28;20050;-81
2023/08/23 06:15:17;;;;;;;12.73;4.65;;;17.90;99.90;;;18.44;69.94;100952.19;5006123;28;20125;-81
2023/08/23 06:17:44;;;;;;;12.23;4.05;;;17.90;99.90;;;18.46;69.95;100950.06;5004736;28;20049;-82
2023/08/23 06:20:12;;;;;;;9.25;3.85;;;18.00;99.90;;;18.55;70.25;100945.06;5008022;28;20046;-80
2023/08/23 06:22:39;;;;;;;10.73;4.68;;;18.10;99.90;;;18.66;70.16;100949.50;4985188;28;20073;-81
2023/08/23 06:25:07;;;;;;;11.15;4.88;;;18.20;99.90;;;18.77;69.38;100956.66;5007416;28;20069;-81
2023/08/23 06:27:34;;;;;;;15.30;5.40;;;18.40;99.90;;;18.85;69.80;100956.22;5007519;28;20037;-81
2023/08/23 06:30:04;;;;;;;13.35;5.72;;;18.50;99.90;;;18.96;69.82;100952.56;5003365;28;20043;-81
2023/08/23 06:32:31;;;;;;;18.13;5.78;;;18.60;99.90;;;19.03;69.96;100957.75;4992941;28;20199;-82
2023/08/23 06:34:59;;;;;;;12.07;5.88;;;18.70;99.90;;;19.06;69.90;100951.03;5002755;28;20061;-82
2023/08/23 06:37:26;;;;;;;13.57;6.05;;;18.80;99.90;;;19.11;71.14;100959.19;5009666;28;20045;-81
2023/08/23 06:39:53;;;;;;;18.52;5.80;;;18.80;99.90;;;19.14;71.47;100964.09;5011669;28;20129;-82
2023/08/23 06:42:21;;;;;;;12.70;5.53;;;18.90;99.90;;;19.18;71.64;100962.47;5008792;28;20046;-82
2023/08/23 06:44:48;;;;;;;7.53;4.05;;;18.90;99.90;;;19.19;72.18;100961.44;4990028;28;20049;-81
2023/08/23 06:47:16;;;;;;;12.68;5.88;;;18.90;99.90;;;19.23;73.08;100960.66;5011301;28;20414;-81
2023/08/23 06:49:43;;;;;;;17.95;7.03;;;19.00;99.90;;;19.31;71.96;100964.78;4993998;28;20092;-81
2023/08/23 06:52:11;;;;;;;17.92;8.52;;;19.00;99.90;;;19.44;71.80;100967.06;5010276;28;20128;-81
2023/08/23 06:54:38;;;;;;;24.23;9.73;;;19.20;99.90;;;19.58;71.45;100969.34;5004668;28;20058;-81
2023/08/23 06:57:05;;;;;;;20.63;10.27;;;19.30;99.90;;;19.71;71.77;100971.63;5011448;28;20494;-81
2023/08/23 06:59:33;;;;;;;20.85;11.57;;;19.50;99.90;;;19.79;70.85;100966.53;4994110;28;20586;-81
2023/08/23 07:02:00;;;;;;;23.25;12.10;;;19.60;99.90;;;19.90;71.22;100972.84;4993808;28;20052;-82
2023/08/23 07:04:28;;;;;;;26.65;12.63;;;19.80;99.90;;;19.98;71.33;100972.34;5010612;28;20121;-81
2023/08/23 07:06:57;;;;;;;23.05;12.73;;;19.90;99.90;;;20.09;70.68;100975.13;5011567;28;20522;-81
2023/08/23 07:09:24;;;;;;;24.23;11.75;;;20.00;99.90;;;20.18;70.69;100976.25;5011448;28;20057;-82
2023/08/23 07:11:51;;;;;;;22.05;11.52;;;20.10;99.90;;;20.26;69.81;100990.13;5011750;28;20100;-81
2023/08/23 07:14:18;;;;;;;25.67;12.15;;;20.20;99.90;;;20.32;69.87;100978.22;5004896;28;20038;-81
2023/08/23 07:16:46;;;;;;;22.90;11.52;;;20.30;99.90;;;20.37;69.80;100976.63;4990443;28;20139;-81
2023/08/23 07:19:13;;;;;;;20.33;12.65;;;20.40;99.90;;;20.45;69.17;100976.13;4991472;28;20030;-81
2023/08/23 07:21:41;;;;;;;24.67;12.63;;;20.50;99.90;;;20.49;69.46;100986.19;5000075;28;20104;-82
2023/08/23 07:24:10;;;;;;;24.65;12.63;;;20.60;99.90;;;20.55;69.75;100995.19;5006808;28;20057;-82
2023/08/23 07:26:37;;;;;;;21.95;12.02;;;20.60;99.90;;;20.63;69.10;100997.34;5007059;28;20135;-82
2023/08/23 07:29:05;;;;;;;25.13;12.10;;;20.70;99.90;;;20.71;69.52;101001.47;5014627;28;20081;-82
2023/08/23 07:31:32;;;;;;;23.35;12.25;;;20.80;99.90;;;20.76;70.42;100999.59;5015812;28;20577;-81
2023/08/23 07:33:59;;;;;;;23.02;11.68;;;20.80;99.90;;;20.79;67.98;100995.53;5012152;28;20790;-82
2023/08/23 07:36:27;;;;;;;26.73;12.15;;;20.90;99.90;;;20.87;69.04;101002.31;4998547;28;20046;-82
2023/08/23 07:38:55;;;;;;;20.17;10.73;;;21.00;99.90;;;20.91;67.89;100998.81;5002312;28;20073;-82
2023/08/23 07:41:22;;;;;;;25.40;10.77;;;21.10;99.90;;;21.00;68.30;101001.81;5015025;28;20069;-82
2023/08/23 07:43:50;;;;;;;19.35;9.48;;;21.20;99.90;;;21.05;67.47;100999.13;5012782;28;20054;-82
2023/08/23 07:46:17;;;;;;;19.95;9.73;;;21.20;99.90;;;21.07;66.73;100995.03;4993459;28;20089;-81
2023/08/23 07:48:44;;;;;;;18.67;9.80;;;21.30;99.90;;;21.14;67.12;101010.28;4998152;28;20402;-82
2023/08/23 07:51:11;;;;;;;19.20;9.57;;;21.30;99.90;;;21.23;67.84;101005.94;4997141;28;20077;-82
2023/08/23 07:53:41;;;;;;;23.73;10.77;;;21.40;99.90;;;21.29;68.67;101008.38;4996377;28;20041;-82
2023/08/23 07:56:10;;;;;;;25.10;9.13;;;21.50;99.90;;;21.35;66.16;100998.38;5015884;28;20422;-82
2023/08/23 07:58:38;;;;;;;18.45;9.77;;;21.50;99.90;;;21.40;66.34;101001.09;4997564;28;20077;-82
2023/08/23 08:01:06;;;;;;;20.08;9.45;;;21.60;99.90;;;21.47;67.80;101007.09;5015405;28;20050;-82
2023/08/23 08:03:33;;;;;;;19.63;9.13;;;21.60;99.90;;;21.54;66.88;101014.94;5014626;28;20760;-81
2023/08/23 08:06:00;;;;;;;17.73;8.77;;;21.70;99.90;;;21.59;66.20;101012.25;4993290;28;20054;-82
2023/08/23 08:08:28;;;;;;;22.70;8.93;;;21.80;99.90;;;21.68;66.49;101015.22;4994594;28;20042;-82
2023/08/23 08:10:55;;;;;;;23.80;8.95;;;21.90;99.90;;;21.73;66.04;101013.31;4993542;28;20148;-82
2023/08/23 08:13:24;;;;;;;18.77;9.00;;;22.00;99.90;;;21.79;64.99;101009.50;5014283;28;20125;-81
2023/08/23 08:15:51;;;;;;;15.80;7.55;;;22.00;98.80;;;21.83;63.43;101020.66;4996048;28;20056;-82
2023/08/23 08:18:18;;;;;;;21.23;8.57;;;22.10;97.70;;;21.90;64.39;101015.75;5014677;28;20088;-81
2023/08/23 08:20:48;;;;;;;18.35;9.20;;;22.10;98.00;;;21.96;64.53;101019.25;5013558;28;20057;-82
2023/08/23 08:23:16;;;;;;;22.20;8.95;;;22.20;98.30;;;21.99;63.65;101019.53;5014481;28;20050;-81
2023/08/23 08:25:43;;;;;;;17.20;7.75;;;22.20;97.50;;;22.07;64.11;101021.72;4995765;28;20053;-81
2023/08/23 08:28:10;;;;;;;18.65;7.80;;;22.30;97.70;;;22.10;63.02;101025.75;5013176;28;20598;-82
2023/08/23 08:30:39;;;;;;;14.85;7.35;;;22.40;96.60;;;22.15;62.43;101028.50;5011787;28;20145;-82
2023/08/23 08:33:06;;;;;;;16.45;7.85;;;22.40;96.00;;;22.19;62.17;101024.16;5013509;28;20574;-81
2023/08/23 08:35:33;;;;;;;13.32;6.68;;;22.50;95.40;;;22.24;63.44;101024.13;5005337;28;20076;-82
2023/08/23 08:38:00;;;;;;;17.02;7.45;;;22.50;96.60;;;22.32;63.23;101020.06;5014201;28;20057;-82
2023/08/23 08:40:28;;;;;;;16.08;7.88;;;22.60;96.30;;;22.31;62.84;101023.88;4995390;28;20056;-81
2023/08/23 08:42:55;;;;;;;17.27;8.02;;;22.60;96.00;;;22.38;62.38;101018.94;5013788;28;20133;-81
2023/08/23 08:45:23;;;;;;;15.77;6.72;;;22.70;95.80;;;22.40;61.52;101022.22;5010842;28;20069;-80
2023/08/23 08:47:52;;;;;;;12.35;6.60;;;22.70;94.60;;;22.40;61.49;101018.66;5013339;28;20073;-81
2023/08/23 08:50:20;;;;;;;11.93;6.25;;;22.70;94.60;;;22.44;61.06;101025.19;5013146;28;20037;-81
2023/08/23 08:52:53;;;;;;;11.68;5.57;;;22.80;94.00;;;22.47;61.43;101022.72;5013347;28;20129;-81
2023/08/23 08:55:22;;;;;;;12.02;6.07;;;22.80;94.40;;;22.48;61.19;101026.25;5003869;28;20096;-81
2023/08/23 08:57:53;;;;;;;13.25;6.15;;;22.80;94.20;;;22.60;63.37;101024.84;4994387;28;20042;-82
2023/08/23 09:00:25;;;;;;;13.98;6.10;;;22.90;96.40;;;22.65;59.86;101024.03;5011784;28;20045;-81
2023/08/23 09:02:56;;;;;;;14.82;6.28;;;23.00;93.30;;;22.65;60.82;101017.78;4995388;28;20105;-81
2023/08/23 09:05:25;;;;;;;13.55;6.15;;;23.00;93.50;;;22.60;58.25;101013.19;5002342;28;20102;-82
2023/08/23 09:07:53;;;;;;;13.63;5.30;;;22.90;90.80;;;22.69;61.14;101021.53;4993826;28;20109;-82
2023/08/23 09:10:22;;;;;;;11.60;4.82;;;23.00;94.00;;;22.78;59.28;101014.44;5011267;28;20088;-81
2023/08/23 09:12:49;;;;;;;10.63;6.03;;;23.10;92.00;;;22.75;59.25;101017.72;5013449;28;20194;-82
2023/08/23 09:15:23;;;;;;;13.95;5.72;;;23.00;91.80;;;22.73;59.69;101015.28;5011423;28;20464;-81
2023/08/23 09:17:55;;;;;;;13.90;5.70;;;23.10;92.30;;;22.79;60.29;101010.63;4995561;28;20065;-82
2023/08/23 09:20:23;;;;;;;12.82;5.80;;;23.10;93.00;;;22.79;60.01;101010.63;5012764;28;20044;-81
2023/08/23 09:22:51;;;;;;;12.20;5.53;;;23.10;92.70;;;22.83;60.45;101006.25;5012883;28;20046;-81
2023/08/23 09:25:18;;;;;;;17.83;5.90;;;23.10;92.90;;;22.86;60.36;101013.88;5007989;28;20100;-82
2023/08/23 09:27:45;;;;;;;8.65;4.22;;;23.20;93.00;;;22.93;60.33;101011.66;4994124;28;20046;-81
2023/08/23 09:30:14;;;;;;;13.73;5.30;;;23.20;92.70;;;22.98;59.57;101008.91;4993579;28;20097;-82
2023/08/23 09:32:42;;;;;;;10.77;5.03;;;23.30;92.20;;;23.03;59.84;101003.44;5013015;28;20112;-81
2023/08/23 09:35:17;;;;;;;12.32;4.50;;;23.30;92.40;;;23.06;60.32;101000.16;5004259;28;20390;-82
2023/08/23 09:37:45;;;;;;;8.75;4.88;;;23.40;92.80;;;23.12;62.02;101001.75;4993632;28;20073;-82
2023/08/23 09:40:20;;;;;;;10.98;5.47;;;23.40;94.20;;;23.14;59.01;100998.78;5010756;28;20573;-81
2023/08/23 09:42:48;;;;;;;10.45;4.75;;;23.40;91.20;;;23.18;59.06;100997.13;5012767;28;20046;-81
2023/08/23 09:45:18;;;;;;;18.85;5.57;;;23.50;91.30;;;23.25;59.87;100991.34;5010491;28;20054;-82
2023/08/23 09:47:51;;;;;;;12.15;4.22;;;23.60;91.90;;;23.19;58.73;100995.22;4995083;28;20084;-82
2023/08/23 09:50:21;;;;;;;11.40;4.65;;;23.50;90.80;;;23.29;58.56;100984.25;5012214;28;20041;-82
2023/08/23 09:53:00;;;;;;;13.60;4.40;;;23.60;91.20;;;23.27;59.08;100976.34;5011983;28;20120;-82
2023/08/23 09:55:29;;;;;;;12.55;3.85;;;23.60;91.30;;;23.31;60.35;100979.31;5001840;28;20100;-82
2023/08/23 09:57:57;;;;;;;9.63;4.03;;;23.70;92.60;;;23.29;58.19;100974.16;4993206;28;20050;-82
2023/08/23 10:00:26;;;;;;;9.20;3.75;;;23.60;90.20;;;23.27;59.21;100970.91;4992717;28;20050;-82
2023/08/23 10:02:56;;;;;;;8.82;3.85;;;23.60;91.20;;;23.27;57.33;100970.91;5010268;28;20133;-82
2023/08/23 10:05:26;;;;;;;13.25;4.05;;;23.60;89.30;;;23.39;59.67;100970.56;4997325;28;20050;-81
2023/08/23 10:07:55;;;;;;;9.73;4.07;;;23.70;91.80;;;23.43;58.29;100976.25;4992681;28;20050;-81
2023/08/23 10:10:22;;;;;;;9.88;3.45;;;23.80;90.40;;;23.43;58.06;100968.09;4992665;28;20076;-81
2023/08/23 10:12:54;;;;;;;10.60;3.58;;;23.80;89.50;;;23.48;58.65;100974.28;5011984;28;20457;-82
2023/08/23 10:15:29;;;;;;;9.05;4.03;;;23.80;90.80;;;23.49;56.58;100970.47;4994912;28;20073;-82